createdAt,value
2018-12-18T00:05:24.873Z,72.77
2018-12-18T00:07:54.979Z,68.87
2018-12-18T00:10:48.761Z,80.67
2018-12-18T00:13:18.798Z,70.20
2018-12-18T00:15:48.793Z,78.23
2018-12-18T00:18:18.774Z,72.27
2018-12-18T00:20:48.772Z,75.10
2018-12-18T00:23:18.729Z,70.73
2018-12-18T00:25:56.441Z,73.77
2018-12-18T00:28:26.458Z,71.73
2018-12-18T00:33:57.510Z,70.57
2018-12-18T00:36:27.618Z,75.73
2018-12-18T00:38:57.602Z,70.77
2018-12-18T00:41:27.678Z,73.83
2018-12-18T00:43:57.635Z,70.93
2018-12-18T00:46:27.743Z,68.67
2018-12-18T00:49:04.279Z,70.60
2018-12-18T00:51:44.079Z,70.37
2018-12-18T00:54:14.245Z,68.43
2018-12-18T00:56:44.160Z,64.03
2018-12-18T00:59:19.244Z,71.40
2018-12-18T01:01:54.538Z,70.97
2018-12-18T01:04:24.615Z,73.97
2018-12-18T01:06:58.408Z,67.47
2018-12-18T01:09:28.466Z,62.70
2018-12-18T01:11:58.554Z,61.40
2018-12-18T01:14:40.683Z,63.70
2018-12-18T01:17:13.637Z,59.37
2018-12-18T01:19:43.686Z,77.60
2018-12-18T01:22:30.828Z,64.60
2018-12-18T01:25:02.528Z,64.27
2018-12-18T01:27:32.574Z,65.77
2018-12-18T01:30:02.682Z,60.33
2018-12-18T01:32:32.817Z,62.13
2018-12-18T01:35:02.911Z,62.93
2018-12-18T01:37:32.974Z,67.20
2018-12-18T01:40:04.701Z,67.90
2018-12-18T01:42:34.675Z,73.80
2018-12-18T01:45:04.977Z,69.67
2018-12-18T01:47:36.632Z,72.10
2018-12-18T01:50:07.983Z,71.93
2018-12-18T01:52:38.102Z,63.33
2018-12-18T01:55:08.672Z,77.67
2018-12-18T01:57:38.738Z,71.90
2018-12-18T02:00:08.932Z,64.93
2018-12-18T02:02:38.879Z,67.07
2018-12-18T02:05:16.045Z,66.43
2018-12-18T02:07:50.478Z,63.70
2018-12-18T02:10:20.461Z,69.17
2018-12-18T02:12:50.506Z,73.23
2018-12-18T02:15:20.516Z,67.03
2018-12-18T02:18:00.417Z,71.23
2018-12-18T02:20:30.587Z,60.33
2018-12-18T02:23:00.535Z,70.37
2018-12-18T02:25:37.455Z,73.87
2018-12-18T02:28:07.608Z,69.00
2018-12-18T02:30:43.936Z,67.17
2018-12-18T02:33:17.385Z,70.43
2018-12-18T02:35:47.570Z,70.73
2018-12-18T02:38:17.622Z,63.70
2018-12-18T02:40:47.972Z,71.23
2018-12-18T02:43:17.935Z,69.20
2018-12-18T02:45:47.987Z,69.17
2018-12-18T02:48:18.142Z,73.20
2018-12-18T02:50:48.112Z,67.37
2018-12-18T02:53:31.113Z,77.60
2018-12-18T02:59:01.943Z,79.17
2018-12-18T03:01:39.220Z,77.77
2018-12-18T03:04:11.359Z,77.87
2018-12-18T03:06:43.079Z,75.17
2018-12-18T03:09:20.063Z,76.90
2018-12-18T03:11:51.998Z,84.13
2018-12-18T03:14:22.132Z,81.83
2018-12-18T03:16:52.151Z,78.80
2018-12-18T03:22:41.406Z,78.43
2018-12-18T03:25:13.408Z,74.60
2018-12-18T03:27:43.638Z,72.30
2018-12-18T03:30:13.687Z,79.67
2018-12-18T03:32:49.290Z,72.30
2018-12-18T03:35:19.524Z,76.43
2018-12-18T03:37:53.208Z,75.50
2018-12-18T03:40:23.306Z,81.50
2018-12-18T03:42:53.336Z,72.20
2018-12-18T03:45:23.235Z,68.40
2018-12-18T03:47:53.257Z,71.67
2018-12-18T03:50:23.556Z,72.17
2018-12-18T03:52:54.458Z,71.27
2018-12-18T03:55:24.650Z,66.57
2018-12-18T03:57:56.773Z,65.63
2018-12-18T04:00:26.646Z,72.00
2018-12-18T04:02:56.739Z,69.83
2018-12-18T04:05:26.798Z,66.53
2018-12-18T04:07:56.787Z,71.80
2018-12-18T04:10:26.771Z,66.00
2018-12-18T04:12:56.843Z,62.97
2018-12-18T04:15:26.991Z,66.50
2018-12-18T04:17:56.884Z,67.13
2018-12-18T04:20:27.022Z,67.23
2018-12-18T04:22:57.033Z,63.73
2018-12-18T04:25:27.138Z,64.30
2018-12-18T04:27:57.137Z,68.43
2018-12-18T04:30:27.168Z,62.63
2018-12-18T04:32:57.120Z,63.30
2018-12-18T04:35:29.123Z,61.63
2018-12-18T04:37:59.204Z,57.23
2018-12-18T04:40:29.224Z,63.77
2018-12-18T04:42:59.295Z,61.83
2018-12-18T04:45:29.335Z,60.77
2018-12-18T04:47:59.313Z,59.73
2018-12-18T04:50:29.338Z,58.07
2018-12-18T04:52:59.381Z,60.83
2018-12-18T04:55:29.293Z,65.70
2018-12-18T04:57:59.282Z,65.30
2018-12-18T05:00:29.285Z,67.43
2018-12-18T05:02:59.253Z,65.47
2018-12-18T05:05:29.260Z,65.00
2018-12-18T05:07:59.318Z,61.97
2018-12-18T05:10:29.388Z,70.33
2018-12-18T05:12:59.351Z,61.20
2018-12-18T05:15:29.294Z,64.53
2018-12-18T05:17:59.257Z,61.50
2018-12-18T05:20:29.274Z,61.53
2018-12-18T05:22:59.291Z,61.93
2018-12-18T05:25:29.326Z,67.47
2018-12-18T05:27:59.298Z,60.40
2018-12-18T05:30:29.238Z,71.97
2018-12-18T05:32:59.319Z,60.43
2018-12-18T05:35:29.303Z,65.63
2018-12-18T05:37:59.408Z,67.57
2018-12-18T05:40:29.412Z,57.63
2018-12-18T05:42:59.399Z,63.43
2018-12-18T05:45:29.445Z,55.33
2018-12-18T05:47:59.463Z,63.13
2018-12-18T05:50:29.374Z,61.03
2018-12-18T05:52:59.349Z,59.10
2018-12-18T05:55:29.269Z,68.27
2018-12-18T05:57:59.354Z,65.40
2018-12-18T06:00:29.298Z,55.80
2018-12-18T06:02:59.383Z,59.53
2018-12-18T06:05:29.258Z,57.13
2018-12-18T06:07:59.286Z,61.97
2018-12-18T06:10:29.270Z,56.63
2018-12-18T06:12:59.248Z,57.27
2018-12-18T06:15:29.374Z,56.27
2018-12-18T06:17:59.214Z,58.83
2018-12-18T06:20:29.178Z,61.67
2018-12-18T06:22:59.169Z,64.20
2018-12-18T06:25:29.176Z,60.87
2018-12-18T06:27:59.143Z,58.50
2018-12-18T06:30:29.162Z,58.73
2018-12-18T06:32:59.077Z,61.63
2018-12-18T06:35:29.067Z,55.30
2018-12-18T06:37:59.118Z,54.40
2018-12-18T06:40:29.095Z,56.63
2018-12-18T06:42:59.073Z,56.87
2018-12-18T06:45:28.929Z,57.07
2018-12-18T06:47:59.038Z,60.77
2018-12-18T06:50:28.956Z,56.80
2018-12-18T06:52:58.937Z,53.03
2018-12-18T06:55:28.900Z,61.63
2018-12-18T06:57:58.868Z,58.93
2018-12-18T07:00:28.893Z,65.33
2018-12-18T07:02:58.904Z,62.37
2018-12-18T07:05:28.750Z,56.37
2018-12-18T07:07:58.756Z,56.63
2018-12-18T07:10:28.730Z,64.07
2018-12-18T07:12:58.838Z,61.13
2018-12-18T07:15:28.850Z,65.30
2018-12-18T07:17:58.949Z,60.70
2018-12-18T07:20:28.924Z,59.53
2018-12-18T07:22:58.896Z,65.03
2018-12-18T07:25:29.039Z,63.40
2018-12-18T07:27:59.034Z,64.97
2018-12-18T07:30:29.234Z,73.03
2018-12-18T07:32:59.335Z,71.80
2018-12-18T07:35:29.691Z,66.23
2018-12-18T07:37:59.667Z,87.93
2018-12-18T07:40:29.777Z,69.27
2018-12-18T07:42:59.730Z,72.07
2018-12-18T07:45:29.795Z,80.50
2018-12-18T07:47:59.969Z,72.03
2018-12-18T07:50:31.534Z,78.47
2018-12-18T07:53:01.778Z,77.07
2018-12-18T07:55:31.930Z,73.90
2018-12-18T07:58:02.351Z,74.00
2018-12-18T08:00:34.426Z,76.23
2018-12-18T08:03:04.677Z,79.83
2018-12-18T08:05:35.281Z,76.17
2018-12-18T08:08:05.479Z,83.67
2018-12-18T08:10:35.926Z,82.53
2018-12-18T08:13:06.218Z,82.20
2018-12-18T08:15:36.470Z,90.73
2018-12-18T08:18:06.859Z,94.20
2018-12-18T08:20:37.170Z,90.27
2018-12-18T08:23:07.359Z,80.67
2018-12-18T08:25:38.752Z,85.80
2018-12-18T08:28:08.687Z,86.07
2018-12-18T08:30:38.689Z,90.63
2018-12-18T08:33:08.852Z,80.77
2018-12-18T08:35:40.612Z,88.87
2018-12-18T08:38:10.717Z,92.67
2018-12-18T08:40:41.319Z,81.93
2018-12-18T08:43:11.323Z,85.53
2018-12-18T08:45:41.167Z,87.63
2018-12-18T08:48:11.502Z,81.60
2018-12-18T08:50:43.390Z,83.97
2018-12-18T08:53:13.713Z,91.10
2018-12-18T08:55:44.230Z,80.93
2018-12-18T08:58:15.297Z,84.57
2018-12-18T09:00:45.567Z,87.60
2018-12-18T09:03:17.370Z,88.47
2018-12-18T09:05:47.421Z,97.70
2018-12-18T09:08:17.798Z,78.47
2018-12-18T09:10:48.027Z,89.57
2018-12-18T09:13:18.288Z,83.70
2018-12-18T09:15:53.455Z,85.77
2018-12-18T09:18:23.660Z,87.83
2018-12-18T09:20:53.738Z,78.27
2018-12-18T09:23:23.903Z,79.50
2018-12-18T09:25:54.209Z,78.20
2018-12-18T09:28:24.286Z,76.43
2018-12-18T09:30:54.214Z,79.63
2018-12-18T09:33:24.302Z,87.93
2018-12-18T09:35:54.442Z,76.20
2018-12-18T09:38:29.542Z,73.97
2018-12-18T09:41:04.792Z,75.23
2018-12-18T09:43:40.065Z,73.03
2018-12-18T09:46:10.130Z,73.10
2018-12-18T09:48:40.028Z,69.90
2018-12-18T09:51:09.893Z,69.07
2018-12-18T09:53:39.770Z,70.30
2018-12-18T09:56:09.747Z,68.97
2018-12-18T09:58:39.710Z,63.60
2018-12-18T10:01:09.912Z,62.37
2018-12-18T10:03:39.786Z,65.87
2018-12-18T10:06:09.637Z,58.87
2018-12-18T10:08:39.647Z,57.37
2018-12-18T10:11:09.618Z,60.03
2018-12-18T10:13:39.752Z,57.50
2018-12-18T10:16:09.704Z,55.37
2018-12-18T10:18:40.748Z,57.03
2018-12-18T10:21:12.578Z,55.50
2018-12-18T10:23:42.669Z,57.77
2018-12-18T10:26:12.818Z,62.23
2018-12-18T10:28:43.111Z,58.17
2018-12-18T10:31:12.999Z,56.07
2018-12-18T10:33:42.995Z,56.27
2018-12-18T10:36:12.878Z,60.83
2018-12-18T10:38:42.966Z,54.53
2018-12-18T10:41:13.055Z,53.93
2018-12-18T10:43:43.068Z,47.30
2018-12-18T10:46:13.190Z,50.07
2018-12-18T10:48:43.047Z,56.10
2018-12-18T10:51:13.109Z,48.93
2018-12-18T10:53:43.309Z,49.43
2018-12-18T10:56:13.202Z,46.20
2018-12-18T10:58:43.247Z,41.60
2018-12-18T11:01:16.510Z,39.93
2018-12-18T11:03:46.538Z,40.30
2018-12-18T11:06:16.780Z,39.70
2018-12-18T11:08:46.949Z,39.97
2018-12-18T11:11:17.027Z,45.27
2018-12-18T11:13:46.946Z,36.33
2018-12-18T11:16:17.022Z,36.60
2018-12-18T11:18:46.991Z,38.50
2018-12-18T11:21:17.643Z,36.10
2018-12-18T11:23:47.829Z,33.53
2018-12-18T11:26:17.863Z,40.53
2018-12-18T11:28:48.831Z,35.83
2018-12-18T11:31:18.889Z,33.77
2018-12-18T11:33:48.995Z,36.00
2018-12-18T11:36:19.109Z,34.57
2018-12-18T11:38:48.957Z,37.77
2018-12-18T11:41:19.067Z,30.60
2018-12-18T11:43:49.048Z,31.77
2018-12-18T11:46:19.255Z,30.83
2018-12-18T11:48:49.211Z,30.73
2018-12-18T11:51:19.318Z,32.43
2018-12-18T11:53:49.308Z,30.97
2018-12-18T11:56:19.429Z,31.80
2018-12-18T11:58:49.221Z,31.70
2018-12-18T12:01:20.810Z,28.60
2018-12-18T12:03:52.543Z,27.03
2018-12-18T12:06:24.632Z,40.10
2018-12-18T12:08:55.721Z,28.47
2018-12-18T12:11:25.841Z,33.97
2018-12-18T12:13:55.845Z,23.67
2018-12-18T12:16:25.814Z,24.03
2018-12-18T12:18:55.791Z,29.20
2018-12-18T12:21:25.906Z,30.20
2018-12-18T12:23:55.834Z,26.17
2018-12-18T12:26:31.248Z,24.37
2018-12-18T12:29:01.441Z,28.40
2018-12-18T12:31:31.470Z,24.17
2018-12-18T12:34:01.562Z,21.67
2018-12-18T12:36:31.671Z,18.00
2018-12-18T12:39:01.635Z,17.70
2018-12-18T12:41:33.132Z,16.43
2018-12-18T12:44:03.365Z,20.43
2018-12-18T12:46:33.408Z,13.47
2018-12-18T12:49:08.857Z,18.67
2018-12-18T12:51:39.408Z,12.43
2018-12-18T12:54:09.329Z,17.63
2018-12-18T12:56:39.302Z,13.53
2018-12-18T12:59:09.212Z,16.87
2018-12-18T13:01:42.191Z,22.10
2018-12-18T13:04:11.256Z,13.00
2018-12-18T13:06:41.350Z,17.87
2018-12-18T13:09:11.555Z,14.73
2018-12-18T13:11:41.561Z,16.77
2018-12-18T13:14:11.637Z,16.40
2018-12-18T13:16:41.724Z,19.13
2018-12-18T13:19:11.691Z,17.63
2018-12-18T13:21:41.926Z,15.63
2018-12-18T13:24:11.921Z,18.50
2018-12-18T13:26:41.897Z,13.70
2018-12-18T13:29:11.937Z,14.50
2018-12-18T13:31:41.901Z,19.97
2018-12-18T13:34:11.900Z,20.10
2018-12-18T13:36:43.175Z,16.60
2018-12-18T13:39:13.420Z,21.13
2018-12-18T13:41:43.359Z,24.23
2018-12-18T13:44:13.354Z,16.90
2018-12-18T13:46:43.377Z,18.53
2018-12-18T13:49:13.539Z,15.77
2018-12-18T13:51:43.496Z,19.20
2018-12-18T13:54:13.488Z,19.40
2018-12-18T13:56:43.551Z,14.90
2018-12-18T13:59:13.582Z,19.47
2018-12-18T14:01:43.587Z,17.50
2018-12-18T14:04:13.542Z,18.03
2018-12-18T14:06:49.498Z,17.60
2018-12-18T14:09:15.664Z,15.70
2018-12-18T14:11:45.743Z,17.90
2018-12-18T14:14:15.747Z,20.80
2018-12-18T14:16:45.714Z,17.00
2018-12-18T14:19:17.277Z,19.10
2018-12-18T14:21:51.607Z,24.23
2018-12-18T14:24:21.811Z,20.40
2018-12-18T14:26:51.835Z,20.90
2018-12-18T14:29:21.816Z,19.20
2018-12-18T14:31:51.835Z,18.60
2018-12-18T14:34:21.864Z,21.50
2018-12-18T14:36:56.154Z,21.37
2018-12-18T14:39:24.187Z,23.30
2018-12-18T14:41:54.299Z,18.63
2018-12-18T14:44:24.262Z,18.97
2018-12-18T14:46:54.230Z,17.70
2018-12-18T14:49:24.085Z,22.80
2018-12-18T14:51:54.153Z,17.10
2018-12-18T14:54:24.535Z,18.23
2018-12-18T14:56:59.832Z,15.73
2018-12-18T14:59:29.982Z,15.97
2018-12-18T15:02:00.211Z,17.83
2018-12-18T15:04:30.019Z,16.13
2018-12-18T15:07:03.385Z,15.50
2018-12-18T15:09:33.588Z,15.07
2018-12-18T15:12:03.695Z,15.70
2018-12-18T15:14:33.887Z,23.07
2018-12-18T15:17:03.958Z,21.50
2018-12-18T15:19:33.891Z,16.83
2018-12-18T15:22:04.206Z,21.67
2018-12-18T15:24:34.139Z,18.93
2018-12-18T15:27:04.130Z,18.60
2018-12-18T15:29:34.130Z,18.27
2018-12-18T15:32:04.361Z,15.73
2018-12-18T15:34:34.356Z,22.10
2018-12-18T15:37:09.563Z,15.57
2018-12-18T15:39:36.386Z,16.97
2018-12-18T15:42:20.694Z,18.93
2018-12-18T15:44:50.658Z,17.97
2018-12-18T15:47:22.540Z,15.60
2018-12-18T15:49:52.470Z,24.67
2018-12-18T15:52:24.236Z,16.80
2018-12-18T15:54:55.626Z,13.63
2018-12-18T15:57:27.098Z,13.37
2018-12-18T15:59:57.041Z,12.77
2018-12-18T16:02:27.142Z,12.20
2018-12-18T16:04:58.108Z,13.07
2018-12-18T16:07:31.762Z,12.93
2018-12-18T16:10:01.816Z,14.00
2018-12-18T16:12:33.549Z,13.33
2018-12-18T16:15:04.170Z,13.23
2018-12-18T16:17:35.621Z,11.73
2018-12-18T16:20:07.488Z,14.40
2018-12-18T16:22:37.653Z,8.90
2018-12-18T16:25:07.949Z,9.73
2018-12-18T16:27:38.044Z,14.07
2018-12-18T16:30:08.266Z,9.93
2018-12-18T16:32:38.232Z,9.83
2018-12-18T16:35:08.196Z,8.83
2018-12-18T16:37:38.387Z,11.23
2018-12-18T16:40:08.687Z,11.67
2018-12-18T16:42:38.765Z,8.90
2018-12-18T16:45:08.914Z,14.33
2018-12-18T16:47:41.854Z,11.90
2018-12-18T16:50:11.806Z,13.23
2018-12-18T16:52:41.786Z,12.03
2018-12-18T16:55:11.785Z,10.27
2018-12-18T16:57:41.729Z,12.07
2018-12-18T17:00:11.829Z,11.37
2018-12-18T17:02:42.897Z,14.93
2018-12-18T17:05:13.153Z,11.10
2018-12-18T17:07:44.109Z,12.57
2018-12-18T17:10:15.669Z,16.67
2018-12-18T17:12:50.971Z,13.93
2018-12-18T17:15:22.603Z,10.07
2018-12-18T17:18:00.538Z,14.87
2018-12-18T17:20:32.213Z,10.20
2018-12-18T17:23:02.211Z,11.60
2018-12-18T17:25:32.369Z,8.33
2018-12-18T17:28:12.912Z,10.13
2018-12-18T17:30:43.545Z,11.10
2018-12-18T17:33:13.825Z,9.63
2018-12-18T17:35:44.600Z,16.57
2018-12-18T17:38:15.084Z,15.80
2018-12-18T17:40:45.523Z,9.07
2018-12-18T17:46:13.018Z,10.70
2018-12-18T17:48:43.466Z,8.47
2018-12-18T17:51:13.987Z,13.80
2018-12-18T17:53:44.196Z,9.97
2018-12-18T17:56:26.717Z,10.00
2018-12-18T17:59:14.877Z,8.60
2018-12-18T18:01:44.937Z,8.40
2018-12-18T18:04:34.490Z,8.60
2018-12-18T18:07:04.509Z,9.77
2018-12-18T18:09:34.490Z,10.37
2018-12-18T18:12:04.573Z,9.73
2018-12-18T18:14:52.135Z,10.07
2018-12-18T18:17:36.783Z,11.40
2018-12-18T18:20:14.618Z,10.43
2018-12-18T18:22:44.691Z,9.83
2018-12-18T18:25:15.083Z,7.53
2018-12-18T18:27:45.001Z,8.60
2018-12-18T18:30:15.127Z,11.57
2018-12-18T18:32:46.359Z,8.93
2018-12-18T18:35:16.475Z,15.07
2018-12-18T18:37:49.692Z,8.40
2018-12-18T18:40:19.529Z,11.13
2018-12-18T18:42:49.565Z,9.90
2018-12-18T18:45:19.484Z,9.00
2018-12-18T18:47:55.340Z,10.23
2018-12-18T18:50:25.536Z,9.50
2018-12-18T18:52:55.502Z,12.80
2018-12-18T18:55:25.462Z,11.30
2018-12-18T18:57:55.564Z,11.20
2018-12-18T19:00:25.727Z,13.60
2018-12-18T19:02:56.025Z,14.40
2018-12-18T19:05:26.106Z,14.07
2018-12-18T19:07:56.646Z,11.83
2018-12-18T19:10:26.845Z,11.50
2018-12-18T19:13:00.092Z,11.87
2018-12-18T19:15:31.911Z,11.57
2018-12-18T19:18:01.878Z,13.67
2018-12-18T19:20:32.965Z,15.50
2018-12-18T19:23:02.951Z,12.47
2018-12-18T19:25:33.273Z,11.90
2018-12-18T19:28:03.448Z,15.90
2018-12-18T19:30:33.573Z,11.53
2018-12-18T19:33:03.621Z,11.60
2018-12-18T19:35:33.991Z,10.73
2018-12-18T19:38:04.030Z,12.60
2018-12-18T19:40:34.225Z,11.47
2018-12-18T19:43:04.324Z,14.33
2018-12-18T19:45:35.507Z,16.07
2018-12-18T19:48:05.693Z,12.43
2018-12-18T19:50:35.899Z,12.40
2018-12-18T19:53:05.906Z,15.27
2018-12-18T19:55:36.953Z,15.87
2018-12-18T19:58:08.157Z,16.33
2018-12-18T20:00:38.166Z,16.57
2018-12-18T20:03:21.071Z,15.53
2018-12-18T20:05:51.250Z,12.07
2018-12-18T20:08:31.475Z,12.67
2018-12-18T20:11:01.927Z,18.10
2018-12-18T20:13:32.317Z,17.30
2018-12-18T20:16:02.397Z,16.67
2018-12-18T20:18:32.481Z,16.77
2018-12-18T20:21:02.509Z,17.23
2018-12-18T20:23:32.515Z,15.60
2018-12-18T20:26:04.757Z,15.90
2018-12-18T20:28:34.874Z,16.03
2018-12-18T20:31:04.976Z,16.33
2018-12-18T20:33:35.947Z,17.43
2018-12-18T20:36:05.982Z,16.63
2018-12-18T20:38:35.980Z,18.67
2018-12-18T20:41:06.082Z,19.73
2018-12-18T20:43:36.227Z,15.50
2018-12-18T20:46:06.230Z,17.53
2018-12-18T20:48:36.084Z,14.27
2018-12-18T20:51:06.312Z,15.37
2018-12-18T20:53:37.383Z,17.90
2018-12-18T20:56:08.360Z,11.47
2018-12-18T20:58:38.355Z,13.27
2018-12-18T21:01:09.513Z,12.37
2018-12-18T21:03:39.638Z,15.17
2018-12-18T21:06:09.811Z,17.30
2018-12-18T21:08:42.583Z,13.83
2018-12-18T21:11:15.903Z,16.00
2018-12-18T21:13:48.210Z,13.50
2018-12-18T21:16:18.312Z,14.50
2018-12-18T21:18:49.436Z,11.77
2018-12-18T21:21:19.574Z,14.40
2018-12-18T21:23:49.558Z,12.07
2018-12-18T21:26:19.654Z,13.10
2018-12-18T21:28:49.559Z,12.47
2018-12-18T21:31:19.718Z,11.97
2018-12-18T21:33:49.661Z,14.93
2018-12-18T21:36:19.789Z,14.70
2018-12-18T21:38:51.569Z,13.13
2018-12-18T21:41:21.564Z,15.80
2018-12-18T21:43:51.644Z,15.77
2018-12-18T21:46:21.614Z,12.27
2018-12-18T21:48:51.890Z,12.93
2018-12-18T21:51:21.851Z,14.57
2018-12-18T21:53:51.901Z,14.23
2018-12-18T21:56:22.322Z,11.50
2018-12-18T21:58:52.507Z,16.83
2018-12-18T22:01:22.621Z,11.57
2018-12-18T22:03:52.697Z,13.20
2018-12-18T22:06:22.630Z,12.97
2018-12-18T22:08:52.666Z,13.23
2018-12-18T22:11:24.269Z,15.43
2018-12-18T22:13:54.258Z,11.37
2018-12-18T22:16:24.323Z,16.17
2018-12-18T22:18:54.422Z,15.60
2018-12-18T22:21:24.407Z,14.40
2018-12-18T22:23:54.398Z,10.80
2018-12-18T22:26:24.346Z,16.13
2018-12-18T22:28:55.278Z,12.03
2018-12-18T22:31:25.235Z,16.17
2018-12-18T22:33:55.488Z,10.73
2018-12-18T22:36:25.560Z,11.47
2018-12-18T22:38:56.620Z,9.13
2018-12-18T22:41:28.984Z,11.00
2018-12-18T22:43:59.076Z,14.07
2018-12-18T22:46:29.072Z,9.27
2018-12-18T22:48:59.120Z,15.37
2018-12-18T22:51:29.127Z,15.40
2018-12-18T22:53:59.237Z,14.03
2018-12-18T22:56:29.273Z,14.23
2018-12-18T22:58:59.318Z,8.43
2018-12-18T23:01:34.705Z,10.27
2018-12-18T23:04:05.028Z,10.07
2018-12-18T23:06:35.088Z,9.73
2018-12-18T23:09:09.529Z,11.43
2018-12-18T23:11:41.610Z,10.77
2018-12-18T23:14:12.781Z,13.17
2018-12-18T23:16:44.910Z,10.13
2018-12-18T23:19:16.113Z,12.17
2018-12-18T23:21:46.167Z,9.27
2018-12-18T23:24:16.342Z,8.73
2018-12-18T23:26:46.409Z,8.57
2018-12-18T23:29:17.547Z,8.13
2018-12-18T23:31:47.539Z,12.03
2018-12-18T23:34:19.559Z,9.37
2018-12-18T23:36:49.640Z,9.83
2018-12-18T23:39:19.774Z,11.73
2018-12-18T23:41:51.712Z,8.70
2018-12-18T23:44:21.821Z,14.13
2018-12-18T23:46:51.905Z,10.17
2018-12-18T23:49:22.023Z,11.30
2018-12-18T23:51:53.263Z,13.10
2018-12-18T23:54:23.286Z,9.27
2018-12-18T23:56:55.249Z,10.53
2018-12-18T23:59:28.373Z,11.63
